Watonga, OK

2:26 PM CDT on May 23, 2018 (GMT -0500)
Watonga

Weather History for KJWG - March, 2013

Change the Weather History Date:

Sunday, March 3, 2013

  Actual Average Record
Temperature  
Mean Temperature 52 °F -  
Max Temperature 70 °F 58 °F 82 °F (1974)
Min Temperature 35 °F 34 °F -3 °F (1960)
Degree Days  
Heating Degree Days 12    
Growing Degree Days 2 (Base 50)    
Moisture  
Dew Point 38 °F    
Average Humidity 64    
Maximum Humidity 88    
Minimum Humidity 36    
Precipitation  
Precipitation 0.00 in - - ()
Sea Level Pressure  
Sea Level Pressure 29.86 in    
Wind  
Wind Speed 10 mph (South)    
Max Wind Speed 23 mph    
Max Gust Speed 30 mph    
Visibility 10 miles    
Events      
Averages and records for this station are not official NWS values.
T = Trace of Precipitation, MM = Missing Value Source: NWS Daily Summary

Daily Weather History Graph

Daily Weather History Graph

Search for Another Location

Airport or City:

Astronomy

Mar. 03, 2013 Rise Set
Actual Time 7:00 AM CST 6:30 PM CST
Civil Twilight 6:35 AM CST 6:56 PM CST
Nautical Twilight 6:05 AM CST 7:26 PM CST
Astronomical Twilight 5:35 AM CST 7:55 PM CST
Moon No Moon Rise 10:29 AM CST (3/3)
Length of Visible Light 12h 21m
Length of Day
11h 30m
Waning Gibbous, 63% of the Moon is Illuminated
Mar 3
Waning Gibbous
Mar 4
Last Quarter
Mar 11
New
Mar 19
First Quarter
Mar 27
Full

Hourly Weather History & Observations

Time (CST) Temp. Windchill Dew Point Humidity Pressure Visibility Wind Dir Wind Speed Gust Speed Precip Events Conditions
12:15 AM 39.2 °F 33.6 °F 33.3 °F 79% 30.14 in 10.0 mi South 8.1 mph - N/A   Clear
12:35 AM 39.2 °F 33.6 °F 33.4 °F 80% 30.13 in 10.0 mi South 8.1 mph - N/A   Clear
12:55 AM 38.8 °F 33.2 °F 33.4 °F 81% 30.12 in 10.0 mi South 8.1 mph - N/A   Clear
1:15 AM 38.5 °F 33.4 °F 33.6 °F 83% 30.12 in 10.0 mi South 6.9 mph - N/A   Clear
1:35 AM 39.2 °F 33.6 °F 33.8 °F 81% 30.12 in 10.0 mi South 8.1 mph - N/A   Clear
1:55 AM 39.4 °F 33.8 °F 33.8 °F 80% 30.12 in 10.0 mi South 8.1 mph - N/A   Clear
2:15 AM 39.6 °F 34.7 °F 33.8 °F 80% 30.11 in 10.0 mi South 6.9 mph - N/A   Clear
2:35 AM 39.2 °F 34.2 °F 33.8 °F 81% 30.11 in 10.0 mi South 6.9 mph - N/A   Clear
2:55 AM 39.0 °F 33.4 °F 33.8 °F 82% 30.11 in 10.0 mi South 8.1 mph - N/A   Clear
3:15 AM 38.3 °F 32.5 °F 33.8 °F 84% 30.10 in 10.0 mi South 8.1 mph - N/A   Clear
3:35 AM 37.9 °F 32.1 °F 33.8 °F 85% 30.09 in 10.0 mi SSW 8.1 mph - N/A   Clear
3:55 AM 37.4 °F 31.4 °F 33.4 °F 86% 30.08 in 10.0 mi SSW 8.1 mph - N/A   Clear
4:15 AM 37.0 °F 31.0 °F 33.4 °F 87% 30.07 in 10.0 mi South 8.1 mph - N/A   Clear
4:35 AM 37.0 °F 30.4 °F 33.3 °F 86% 30.06 in 10.0 mi South 9.2 mph - N/A   Clear
4:55 AM 36.9 °F 30.1 °F 33.1 °F 86% 30.04 in 10.0 mi SSW 9.2 mph - N/A   Clear
5:15 AM 36.1 °F 29.9 °F 32.9 °F 88% 30.04 in 10.0 mi South 8.1 mph - N/A   Clear
5:35 AM 35.8 °F 28.8 °F 32.5 °F 88% 30.04 in 10.0 mi SSW 9.2 mph - N/A   Clear
5:55 AM 36.5 °F 29.7 °F 32.2 °F 84% 30.04 in 10.0 mi South 9.2 mph - N/A   Clear
6:15 AM 36.3 °F 30.1 °F 32.0 °F 84% 30.02 in 10.0 mi South 8.1 mph - N/A   Clear
6:35 AM 36.7 °F 29.9 °F 32.0 °F 83% 30.02 in 10.0 mi SSW 9.2 mph - N/A   Clear
6:55 AM 36.5 °F 29.7 °F 31.6 °F 83% 30.01 in 10.0 mi South 9.2 mph - N/A   Clear
7:15 AM 36.1 °F 29.3 °F 31.5 °F 83% 30.01 in 10.0 mi South 9.2 mph - N/A   Clear
7:35 AM 36.1 °F 30.6 °F 31.5 °F 83% 30.01 in 10.0 mi South 6.9 mph - N/A   Clear
7:55 AM 37.0 °F 31.0 °F 31.6 °F 81% 30.00 in 10.0 mi South 8.1 mph - N/A   Clear
8:15 AM 37.6 °F 31.0 °F 32.0 °F 80% 30.00 in 10.0 mi South 9.2 mph - N/A   Clear
8:35 AM 38.7 °F 31.8 °F 32.4 °F 78% 29.99 in 10.0 mi SSW 10.4 mph - N/A   Clear
8:55 AM 40.1 °F 34.7 °F 33.3 °F 77% 29.99 in 10.0 mi SSW 8.1 mph - N/A   Clear
9:15 AM 41.9 °F 35.4 °F 34.2 °F 74% 29.98 in 10.0 mi SSW 11.5 mph - N/A   Clear
9:35 AM 43.5 °F 37.1 °F 35.1 °F 72% 29.97 in 10.0 mi SSW 12.7 mph - N/A   Clear
9:55 AM 45.5 °F 39.9 °F 36.7 °F 71% 29.96 in 10.0 mi SSW 11.5 mph - N/A   Clear
10:15 AM 47.3 °F - 37.4 °F 68% 29.96 in 10.0 mi SSW 9.2 mph - N/A   Clear
10:35 AM 50.2 °F - 39.4 °F 66% 29.95 in 10.0 mi SSW 9.2 mph - N/A   Clear
11:15 AM 55.2 °F - 40.5 °F 58% 29.92 in 10.0 mi SSW 11.5 mph - N/A   Clear
11:35 AM 56.1 °F - 40.1 °F 55% 29.92 in 10.0 mi SSW 12.7 mph - N/A   Clear
12:15 PM 57.6 °F - 39.9 °F 52% 29.89 in 10.0 mi SSW 12.7 mph 18.4 mph N/A   Clear
12:35 PM 59.4 °F - 40.8 °F 50% 29.87 in 10.0 mi SSW 12.7 mph - N/A   Clear
12:55 PM 61.5 °F - 41.9 °F 49% 29.84 in 10.0 mi South 17.3 mph 21.9 mph N/A   Clear
1:15 PM 62.6 °F - 40.1 °F 44% 29.83 in 10.0 mi South 20.7 mph 25.3 mph N/A   Clear
1:35 PM 64.8 °F - 40.5 °F 41% 29.80 in 10.0 mi South 19.6 mph 25.3 mph N/A   Clear
1:55 PM 65.7 °F - 40.8 °F 40% 29.79 in 10.0 mi South 17.3 mph 25.3 mph N/A   Clear
2:15 PM 66.2 °F - 41.2 °F 40% 29.77 in 10.0 mi South 18.4 mph 25.3 mph N/A   Clear
2:35 PM 67.5 °F - 41.2 °F 38% 29.75 in 10.0 mi South 23.0 mph 29.9 mph N/A   Clear
2:55 PM 66.4 °F - 39.7 °F 38% 29.74 in 10.0 mi South 19.6 mph 27.6 mph N/A   Clear
3:15 PM 67.8 °F - 41.7 °F 39% 29.74 in 10.0 mi South 17.3 mph 23.0 mph N/A   Clear
3:35 PM 70.0 °F - 41.9 °F 36% 29.72 in 10.0 mi SSW 21.9 mph 29.9 mph N/A   Clear
3:55 PM 67.3 °F - 42.1 °F 40% 29.72 in 10.0 mi South 15.0 mph 23.0 mph N/A   Clear
4:15 PM 66.6 °F - 42.6 °F 42% 29.71 in 10.0 mi South 18.4 mph 25.3 mph N/A   Clear
4:35 PM 66.6 °F - 42.8 °F 42% 29.70 in 10.0 mi South 17.3 mph 24.2 mph N/A   Clear
4:55 PM 67.5 °F - 43.0 °F 41% 29.69 in 10.0 mi South 17.3 mph 26.5 mph N/A   Clear
5:15 PM 67.5 °F - 44.4 °F 43% 29.69 in 10.0 mi South 10.4 mph 16.1 mph N/A   Clear
5:35 PM 66.4 °F - 44.1 °F 44% 29.68 in 10.0 mi SSE 11.5 mph - N/A   Clear
5:55 PM 66.2 °F - 44.6 °F 46% 29.67 in 10.0 mi SE 9.2 mph - N/A   Clear
6:15 PM 65.3 °F - 44.6 °F 47% 29.67 in 10.0 mi SE 8.1 mph - N/A   Clear
6:35 PM 63.7 °F - 44.1 °F 49% 29.65 in 10.0 mi SE 9.2 mph - N/A   Clear
6:55 PM 62.1 °F - 43.2 °F 50% 29.65 in 10.0 mi SSE 9.2 mph 17.3 mph N/A   Clear
7:15 PM 61.2 °F - 43.0 °F 51% 29.65 in 10.0 mi SE 10.4 mph - N/A   Clear
7:35 PM 59.9 °F - 43.0 °F 54% 29.65 in 10.0 mi SE 10.4 mph - N/A   Clear
7:55 PM 59.2 °F - 42.6 °F 54% 29.64 in 10.0 mi SE 12.7 mph - N/A   Clear
8:15 PM 58.3 °F - 42.3 °F 55% 29.63 in 10.0 mi SE 11.5 mph - N/A   Clear
8:35 PM 58.1 °F - 41.9 °F 55% 29.63 in 10.0 mi SE 12.7 mph 16.1 mph N/A   Clear
8:55 PM 57.6 °F - 41.9 °F 56% 29.63 in 10.0 mi SE 10.4 mph - N/A   Clear
9:15 PM 56.1 °F - 41.9 °F 59% 29.62 in 10.0 mi SSE 8.1 mph - N/A   Clear
9:35 PM 55.0 °F - 41.7 °F 61% 29.61 in 10.0 mi SSE 10.4 mph - N/A   Clear
9:55 PM 55.4 °F - 41.5 °F 60% 29.61 in 10.0 mi SSE 10.4 mph - N/A   Clear
10:15 PM 56.1 °F - 41.0 °F 57% 29.59 in 10.0 mi SSE 11.5 mph 18.4 mph N/A   Clear
10:35 PM 55.6 °F - 41.0 °F 58% 29.59 in 10.0 mi SSE 11.5 mph 18.4 mph N/A   Clear
10:55 PM 54.9 °F - 40.5 °F 58% 29.59 in 10.0 mi SSE 10.4 mph - N/A   Clear
11:15 PM 54.0 °F - 40.1 °F 59% 29.58 in 10.0 mi SSE 10.4 mph - N/A   Clear
11:35 PM 55.4 °F - 39.0 °F 54% 29.56 in 10.0 mi South 13.8 mph 17.3 mph N/A   Clear